Time;durP1;ratioP1;P1;durP2;ratioP2;P2;SDS_P1;SDS_P2;PMS_P1;PMS_P2;Temp;Humidity;BMP_temperature;BMP_pressure;BME280_temperature;BME280_humidity;BME280_pressure;Samples;Min_cycle;Max_cycle;Signal;HPM_P1;HPM_P2
2023/07/21 00:01:16;;;;;;;0.00;0.00;;;;;;;13.67;nan;100185.69;4947477;28;20023;-75
2023/07/21 00:03:41;;;;;;;0.00;0.00;;;;;;;;;;4961076;28;20027;-76
2023/07/21 00:06:09;;;;;;;0.00;0.00;;;;;;;;;;4956094;28;20038;-74
2023/07/21 00:08:38;;;;;;;0.00;0.00;;;;;;;13.77;nan;100191.06;4944120;28;20128;-75
2023/07/21 00:11:03;;;;;;;0.00;0.00;;;;;;;;;;4946360;29;20039;-74
2023/07/21 00:13:29;;;;;;;0.00;0.00;;;;;;;13.67;nan;100190.34;4941267;28;20038;-73
2023/07/21 00:15:56;;;;;;;0.00;0.00;;;;;;;13.55;nan;100188.03;4945831;29;20037;-74
2023/07/21 00:18:22;;;;;;;0.00;0.00;;;;;;;;;;4967202;28;20054;-74
2023/07/21 00:20:47;;;;;;;0.00;0.00;;;;;;;;;;4943822;29;20019;-73
2023/07/21 00:23:13;;;;;;;0.00;0.00;;;;;;;13.19;nan;100193.88;4936212;28;20035;-73
2023/07/21 00:25:42;;;;;;;0.00;0.00;;;;;;;;;;4955144;28;20383;-74
2023/07/21 00:28:07;;;;;;;0.00;0.00;;;;;;;12.96;nan;100188.03;4945669;28;20030;-74
2023/07/21 00:30:37;;;;;;;0.00;0.00;;;;;;;12.88;nan;100142.00;4965520;28;20479;-73
2023/07/21 00:33:03;;;;;;;0.00;0.00;;;;;;;;;;4953376;28;20516;-75
2023/07/21 00:35:29;;;;;;;0.00;0.00;;;;;;;;;;4941924;28;20110;-72
2023/07/21 00:38:01;;;;;;;0.00;0.00;;;;;;;12.71;nan;100198.09;4951526;28;20186;-72
2023/07/21 00:40:30;;;;;;;0.00;0.00;;;;;;;;;;4951942;28;20031;-72
2023/07/21 00:42:57;;;;;;;0.00;0.00;;;;;;;12.65;nan;100192.94;4965502;28;20022;-73
2023/07/21 00:45:25;;;;;;;0.00;0.00;;;;;;;;;;4927170;29;20438;-73
2023/07/21 00:47:51;;;;;;;0.00;0.00;;;;;;;12.60;nan;100191.06;4962148;28;20173;-72
2023/07/21 00:50:17;;;;;;;0.00;0.00;;;;;;;12.57;nan;100186.97;4961247;28;20121;-71
2023/07/21 00:52:43;;;;;;;0.00;0.00;;;;;;;12.57;nan;100186.13;4956151;28;22467;-73
2023/07/21 00:55:09;;;;;;;0.00;0.00;;;;;;;12.55;nan;100182.84;4958906;28;20045;-73
2023/07/21 00:57:35;;;;;;;0.00;0.00;;;;;;;7.26;nan;99336.66;4963210;28;20393;-72
2023/07/21 01:00:16;;;;;;;;;;;;;;;;;;;;;
2023/07/21 01:02:42;;;;;;;0.00;0.00;;;;;;;12.53;nan;100168.63;4959135;28;20019;-74
2023/07/21 01:05:08;;;;;;;0.00;0.00;;;;;;;12.55;nan;100171.88;4946254;28;20077;-72
2023/07/21 01:07:34;;;;;;;0.00;0.00;;;;;;;;;;4957338;28;20097;-71
2023/07/21 01:10:03;;;;;;;0.00;0.00;;;;;;;12.48;nan;100179.63;4939307;28;20445;-72
2023/07/21 01:12:30;;;;;;;0.00;0.00;;;;;;;7.06;nan;99316.50;4949905;28;20512;-73
2023/07/21 01:14:55;;;;;;;0.00;0.00;;;;;;;;;;4928455;29;20062;-72
2023/07/21 01:17:22;;;;;;;0.00;0.00;;;;;;;;;;4927052;28;20058;-73
2023/07/21 01:19:50;;;;;;;0.00;0.00;;;;;;;12.48;nan;100182.34;4966289;28;20026;-73
2023/07/21 01:22:24;;;;;;;0.00;0.00;;;;;;;;;;4936020;28;20034;-73
2023/07/21 01:24:50;;;;;;;0.00;0.00;;;;;;;12.51;nan;100182.63;4945169;28;20031;-75
2023/07/21 01:27:20;;;;;;;0.00;0.00;;;;;;;12.45;nan;100171.97;4969099;28;20027;-74
2023/07/21 01:29:46;;;;;;;0.03;0.03;;;;;;;;;;4941680;28;20031;-74
2023/07/21 01:32:19;;;;;;;0.00;0.00;;;;;;;;;;4947803;29;20029;-74
2023/07/21 01:34:46;;;;;;;0.00;0.00;;;;;;;12.20;nan;100171.03;4955561;28;20540;-74
2023/07/21 01:37:12;;;;;;;0.00;0.00;;;;;;;;;;4954078;28;20034;-75
2023/07/21 01:39:38;;;;;;;0.00;0.00;;;;;;;;;;4951416;29;20027;-77
2023/07/21 01:42:05;;;;;;;0.00;0.00;;;;;;;12.11;nan;100169.97;4947260;28;20061;-76
2023/07/21 01:44:31;;;;;;;0.00;0.00;;;;;;;12.04;nan;100165.59;4938062;28;20142;-73
2023/07/21 01:46:56;;;;;;;0.00;0.00;;;;;;;;;;4966332;28;20113;-74
2023/07/21 01:49:22;;;;;;;0.00;0.00;;;;;;;12.01;nan;100166.19;4953044;28;20093;-73
2023/07/21 01:51:48;;;;;;;0.00;0.00;;;;;;;12.03;nan;100179.59;4935149;28;20026;-73
2023/07/21 01:54:22;;;;;;;0.00;0.00;;;;;;;12.02;nan;100156.84;4949557;28;20027;-73
2023/07/21 01:56:54;;;;;;;0.00;0.00;;;;;;;11.99;nan;100162.91;4955445;28;20046;-73
2023/07/21 01:59:22;;;;;;;0.00;0.00;;;;;;;11.98;nan;100147.56;4968804;28;20046;-73
2023/07/21 02:01:48;;;;;;;0.00;0.00;;;;;;;;;;4942235;28;20035;-74
2023/07/21 02:04:14;;;;;;;0.00;0.00;;;;;;;11.94;nan;100168.41;4950645;28;20501;-74
2023/07/21 02:06:40;;;;;;;0.00;0.00;;;;;;;;;;4955874;28;20031;-74
2023/07/21 02:09:05;;;;;;;0.00;0.00;;;;;;;;;;4934138;28;20136;-76
2023/07/21 02:11:31;;;;;;;0.00;0.00;;;;;;;9.58;nan;99834.22;4964156;28;20376;-74
2023/07/21 02:13:57;;;;;;;0.00;0.00;;;;;;;11.80;nan;100140.78;4951194;28;20039;-72
2023/07/21 02:16:22;;;;;;;0.00;0.00;;;;;;;11.65;nan;100122.50;4947614;28;20081;-74
2023/07/21 02:18:48;;;;;;;0.00;0.00;;;;;;;11.73;nan;100155.88;4962149;28;20023;-74
2023/07/21 02:21:13;;;;;;;0.00;0.00;;;;;;;11.67;nan;100142.19;4953288;28;20121;-75
2023/07/21 02:23:38;;;;;;;0.00;0.00;;;;;;;11.67;nan;100164.09;4966004;28;20035;-73
2023/07/21 02:26:04;;;;;;;0.00;0.00;;;;;;;11.63;nan;100157.53;4926595;28;21137;-73
2023/07/21 02:28:29;;;;;;;0.00;0.00;;;;;;;11.60;nan;100147.16;4931252;28;20043;-74
2023/07/21 02:31:02;;;;;;;0.00;0.00;;;;;;;11.58;nan;100159.47;4937055;29;20355;-74
2023/07/21 02:33:28;;;;;;;0.00;0.00;;;;;;;11.54;nan;100164.72;4937693;28;20047;-73
2023/07/21 02:35:56;;;;;;;0.00;0.00;;;;;;;11.45;nan;100161.72;4959902;28;20047;-73
2023/07/21 02:38:22;;;;;;;0.00;0.00;;;;;;;;;;4953443;28;20043;-74
2023/07/21 02:40:47;;;;;;;0.10;0.10;;;;;;;11.37;nan;100156.00;4946881;28;20073;-74
2023/07/21 02:43:12;;;;;;;0.00;0.00;;;;;;;11.29;nan;100154.66;4953661;28;21257;-73
2023/07/21 02:45:38;;;;;;;0.00;0.00;;;;;;;11.25;nan;100162.59;4950932;28;20057;-73
2023/07/21 02:48:07;;;;;;;0.00;0.00;;;;;;;11.19;nan;100177.38;4946059;28;20369;-74
2023/07/21 02:50:33;;;;;;;0.00;0.00;;;;;;;11.13;nan;100142.91;4943192;29;20082;-75
2023/07/21 02:52:58;;;;;;;0.00;0.00;;;;;;;;;;4950527;28;20489;-72
2023/07/21 02:55:24;;;;;;;0.00;0.00;;;;;;;;;;4955630;28;20474;-72
2023/07/21 02:57:49;;;;;;;0.00;0.00;;;;;;;10.97;nan;100177.69;4934979;28;20295;-73
2023/07/21 03:00:14;;;;;;;0.00;0.00;;;;;;;;;;4935856;28;20039;-73
2023/07/21 03:02:41;;;;;;;0.00;0.00;;;;;;;10.85;nan;100172.50;4933402;28;20038;-74
2023/07/21 03:05:07;;;;;;;0.00;0.00;;;;;;;10.79;nan;100165.38;4953941;28;20059;-73
2023/07/21 03:07:33;;;;;;;0.00;0.00;;;;;;;10.78;nan;100159.09;4967648;28;20030;-73
2023/07/21 03:09:59;;;;;;;0.00;0.00;;;;;;;10.72;nan;100138.31;4967140;28;20038;-74
2023/07/21 03:12:24;;;;;;;0.00;0.00;;;;;;;10.67;nan;100164.81;4970061;28;20070;-73
2023/07/21 03:14:50;;;;;;;0.00;0.00;;;;;;;10.61;nan;100166.72;4938068;28;20058;-74
2023/07/21 03:17:15;;;;;;;0.00;0.00;;;;;;;10.57;nan;100174.69;4966167;28;20038;-75
2023/07/21 03:19:40;;;;;;;0.00;0.00;;;;;;;;;;4938148;28;20038;-73
2023/07/21 03:22:06;;;;;;;0.00;0.00;;;;;;;10.51;nan;100170.28;4942742;28;20020;-74
2023/07/21 03:24:34;;;;;;;0.00;0.00;;;;;;;10.49;nan;100161.53;4926417;28;20039;-74
2023/07/21 03:27:10;;;;;;;0.00;0.00;;;;;;;10.46;nan;100145.69;4943953;28;20042;-74
2023/07/21 03:29:35;;;;;;;0.00;0.00;;;;;;;10.46;nan;100170.28;4960675;28;20026;-74
2023/07/21 03:32:01;;;;;;;0.00;0.00;;;;;;;10.46;nan;100159.34;4966179;28;20123;-73
2023/07/21 03:34:29;;;;;;;0.00;0.00;;;;;;;10.46;nan;100162.06;4931395;28;20035;-74
2023/07/21 03:37:01;;;;;;;0.00;0.00;;;;;;;10.45;nan;100168.63;4947283;28;20038;-75
2023/07/21 03:39:26;;;;;;;0.00;0.00;;;;;;;10.49;nan;100164.28;4950121;28;20031;-74
2023/07/21 03:41:52;;;;;;;0.00;0.00;;;;;;;10.41;nan;100167.53;4934759;28;20081;-74
2023/07/21 03:44:17;;;;;;;0.00;0.00;;;;;;;10.40;nan;100152.25;4930553;28;20225;-72
2023/07/21 03:46:45;;;;;;;0.00;0.00;;;;;;;10.37;nan;100163.72;4927415;28;20700;-73
2023/07/21 03:49:11;;;;;;;0.00;0.00;;;;;;;7.70;nan;99736.13;4945955;28;20039;-73
2023/07/21 03:51:39;;;;;;;0.00;0.00;;;;;;;10.30;nan;100148.34;4932019;28;20126;-73
2023/07/21 03:54:04;;;;;;;0.00;0.00;;;;;;;10.34;nan;100169.69;4919644;29;20055;-73
2023/07/21 03:56:29;;;;;;;0.00;0.00;;;;;;;;;;4931849;29;20160;-73
2023/07/21 03:58:55;;;;;;;0.00;0.00;;;;;;;;;;4933546;29;20103;-74
2023/07/21 04:01:20;;;;;;;0.00;0.00;;;;;;;10.24;nan;100168.56;4929859;29;20284;-74
2023/07/21 04:03:47;;;;;;;0.00;0.00;;;;;;;10.22;nan;100162.56;4935175;29;20454;-73
2023/07/21 04:06:14;;;;;;;0.00;0.00;;;;;;;9.48;nan;100033.47;4931318;29;20123;-74
2023/07/21 04:08:41;;;;;;;0.00;0.00;;;;;;;10.18;nan;100166.91;4951086;29;20529;-73
2023/07/21 04:11:06;;;;;;;0.00;0.00;;;;;;;;;;4938347;29;20126;-73
2023/07/21 04:13:32;;;;;;;0.00;0.00;;;;;;;10.18;nan;100164.19;4943891;28;20134;-74
2023/07/21 04:15:59;;;;;;;0.00;0.00;;;;;;;10.21;nan;100165.56;4927040;29;20450;-74
2023/07/21 04:18:25;;;;;;;0.00;0.00;;;;;;;10.17;nan;100157.06;4920966;29;20107;-74
2023/07/21 04:20:50;;;;;;;0.00;0.00;;;;;;;;;;4931622;29;20414;-74
2023/07/21 04:23:15;;;;;;;0.00;0.00;;;;;;;;;;4950610;28;20035;-74
2023/07/21 04:25:41;;;;;;;0.00;0.00;;;;;;;10.08;nan;100151.31;4925048;29;20070;-74
2023/07/21 04:28:07;;;;;;;0.00;0.00;;;;;;;10.00;nan;100181.06;4934605;29;20082;-74
2023/07/21 04:30:33;;;;;;;0.00;0.00;;;;;;;10.01;nan;100166.31;4932251;29;20024;-74
2023/07/21 04:33:00;;;;;;;0.00;0.00;;;;;;;9.95;nan;100147.19;4949169;29;20143;-74
2023/07/21 04:35:26;;;;;;;0.00;0.00;;;;;;;10.01;nan;100163.59;4931713;29;20363;-73
2023/07/21 04:37:51;;;;;;;0.00;0.00;;;;;;;7.93;nan;99793.94;4947608;29;20038;-73
2023/07/21 04:40:19;;;;;;;0.00;0.00;;;;;;;10.06;nan;100177.25;4944051;29;20459;-74
2023/07/21 04:42:45;;;;;;;0.00;0.00;;;;;;;10.10;nan;100164.69;4922068;29;20044;-74
2023/07/21 04:45:13;;;;;;;0.00;0.00;;;;;;;;;;4945063;29;20039;-75
2023/07/21 04:47:40;;;;;;;0.00;0.00;;;;;;;10.18;nan;100161.44;4941409;29;20495;-73
2023/07/21 04:50:06;;;;;;;0.00;0.00;;;;;;;10.20;nan;100170.19;4959300;28;20378;-73
2023/07/21 04:52:32;;;;;;;0.00;0.00;;;;;;;10.26;nan;100160.91;4942912;29;20042;-75
2023/07/21 04:55:00;;;;;;;0.00;0.00;;;;;;;10.33;nan;100151.66;4946556;29;20035;-74
2023/07/21 04:57:25;;;;;;;0.00;0.00;;;;;;;;;;4940901;29;20063;-75
2023/07/21 04:59:50;;;;;;;0.00;0.00;;;;;;;10.44;nan;100165.09;4929962;29;20431;-76
2023/07/21 05:02:16;;;;;;;0.00;0.00;;;;;;;10.49;nan;100161.53;4941679;29;20301;-75
2023/07/21 05:04:41;;;;;;;0.00;0.00;;;;;;;8.97;nan;99924.97;4942733;29;20035;-75
2023/07/21 05:07:09;;;;;;;0.00;0.00;;;;;;;10.63;nan;100178.22;4924890;29;20046;-75
2023/07/21 05:09:35;;;;;;;0.00;0.00;;;;;;;10.72;nan;100181.22;4940412;29;20631;-72
2023/07/21 05:12:01;;;;;;;0.00;0.00;;;;;;;10.83;nan;100182.88;4940320;29;20040;-73
2023/07/21 05:14:26;;;;;;;0.00;0.00;;;;;;;10.95;nan;100186.16;4941873;29;20034;-73
2023/07/21 05:16:52;;;;;;;0.00;0.00;;;;;;;11.06;nan;100186.97;4945428;28;20031;-74
2023/07/21 05:19:17;;;;;;;0.00;0.00;;;;;;;11.18;nan;100178.47;4926752;29;20390;-73
2023/07/21 05:21:50;;;;;;;0.00;0.00;;;;;;;;;;4910812;29;20091;-74
2023/07/21 05:24:15;;;;;;;0.00;0.00;;;;;;;11.39;nan;100190.22;4943613;29;20066;-73
2023/07/21 05:26:41;;;;;;;0.00;0.00;;;;;;;11.48;nan;100191.28;4924889;29;20754;-73
2023/07/21 05:29:09;;;;;;;0.00;0.00;;;;;;;11.48;nan;100193.22;4924498;29;20035;-73
2023/07/21 05:31:35;;;;;;;0.00;0.00;;;;;;;11.66;nan;100200.00;4929672;29;20067;-72
2023/07/21 05:34:07;;;;;;;0.00;0.00;;;;;;;11.69;nan;100200.25;4922456;29;20031;-73
2023/07/21 05:36:32;;;;;;;0.00;0.00;;;;;;;;;;4925655;29;20074;-74
2023/07/21 05:38:58;;;;;;;0.00;0.00;;;;;;;11.76;nan;100189.00;4931833;29;20064;-74
2023/07/21 05:41:23;;;;;;;0.00;0.00;;;;;;;;;;4913922;29;20893;-72
2023/07/21 05:43:48;;;;;;;0.00;0.00;;;;;;;10.10;nan;99900.53;4928552;29;20037;-72
2023/07/21 05:46:14;;;;;;;0.00;0.00;;;;;;;;;;4923964;29;20032;-72
2023/07/21 05:48:41;;;;;;;0.00;0.00;;;;;;;;;;4934839;29;20035;-73
2023/07/21 05:51:11;;;;;;;0.00;0.00;;;;;;;;;;4940337;29;20057;-75
2023/07/21 05:53:36;;;;;;;0.00;0.00;;;;;;;12.01;nan;100187.28;4933551;29;20027;-73
2023/07/21 05:56:04;;;;;;;0.00;0.00;;;;;;;12.12;nan;100201.75;4914680;29;20145;-72
2023/07/21 05:58:30;;;;;;;0.00;0.00;;;;;;;12.14;nan;100178.44;4920204;29;20052;-72
2023/07/21 06:00:55;;;;;;;0.00;0.00;;;;;;;12.27;nan;100190.72;4940503;28;20470;-74
2023/07/21 06:03:21;;;;;;;0.00;0.00;;;;;;;12.33;nan;100197.81;4924499;29;20622;-74
2023/07/21 06:05:48;;;;;;;0.00;0.00;;;;;;;12.38;nan;100203.28;4928244;29;20489;-72
2023/07/21 06:08:13;;;;;;;0.00;0.00;;;;;;;12.55;nan;100199.31;4919984;29;20036;-72
2023/07/21 06:10:40;;;;;;;0.00;0.00;;;;;;;12.63;nan;100204.22;4924721;29;20042;-73
2023/07/21 06:13:06;;;;;;;0.00;0.00;;;;;;;12.73;nan;100197.81;4935937;29;20035;-73
2023/07/21 06:15:31;;;;;;;0.00;0.00;;;;;;;12.90;nan;100211.13;4924511;29;20035;-73
2023/07/21 06:17:57;;;;;;;0.00;0.00;;;;;;;13.00;nan;100210.25;4921154;29;20047;-73
2023/07/21 06:20:23;;;;;;;0.00;0.00;;;;;;;13.08;nan;100201.38;4926762;29;20035;-73
2023/07/21 06:22:48;;;;;;;0.00;0.00;;;;;;;;;;4929776;29;20095;-77
2023/07/21 06:25:14;;;;;;;0.03;0.03;;;;;;;;;;4941624;29;20031;-77
2023/07/21 06:27:39;;;;;;;0.00;0.00;;;;;;;13.39;nan;100210.19;4946742;29;20027;-77
2023/07/21 06:30:05;;;;;;;0.00;0.00;;;;;;;13.55;nan;100207.25;4920015;29;20039;-78
2023/07/21 06:32:31;;;;;;;0.00;0.00;;;;;;;13.65;nan;100218.13;4940248;29;20028;-79
2023/07/21 06:34:56;;;;;;;0.00;0.00;;;;;;;;;;4928018;29;20098;-79
2023/07/21 06:37:21;;;;;;;0.00;0.00;;;;;;;;;;4933777;29;20051;-80
2023/07/21 06:39:48;;;;;;;0.00;0.00;;;;;;;13.87;nan;100208.53;4925224;29;20032;-79
2023/07/21 06:42:17;;;;;;;0.00;0.00;;;;;;;14.01;nan;100212.22;4912940;29;20262;-80
2023/07/21 06:44:45;;;;;;;0.00;0.00;;;;;;;14.23;nan;100219.91;4924304;29;20034;-77
2023/07/21 06:47:11;;;;;;;0.00;0.00;;;;;;;14.49;nan;100220.38;4918280;29;20038;-78
2023/07/21 06:49:37;;;;;;;0.00;0.00;;;;;;;14.77;nan;100206.78;4949754;29;20023;-77
2023/07/21 06:52:03;;;;;;;0.00;0.00;;;;;;;;;;4945626;29;20504;-78
2023/07/21 06:54:30;;;;;;;0.00;0.00;;;;;;;15.27;nan;100227.44;4928804;29;20411;-78
2023/07/21 06:56:58;;;;;;;0.00;0.00;;;;;;;15.51;nan;100219.03;4952768;28;20066;-77
2023/07/21 06:59:31;;;;;;;0.00;0.00;;;;;;;15.71;nan;100201.25;4937262;28;20315;-78
2023/07/21 07:01:57;;;;;;;0.00;0.00;;;;;;;16.13;nan;100207.59;4968895;28;20019;-80
2023/07/21 07:04:23;;;;;;;0.00;0.00;;;;;;;16.32;nan;100214.94;4934120;29;20050;-75
2023/07/21 07:06:48;;;;;;;0.00;0.00;;;;;;;16.61;nan;100219.25;4937418;28;21049;-79
2023/07/21 07:09:14;;;;;;;0.00;0.00;;;;;;;16.83;nan;100222.03;4969605;28;20743;-77
2023/07/21 07:11:39;;;;;;;0.00;0.00;;;;;;;17.00;nan;100228.88;4945145;28;20070;-77
2023/07/21 07:14:07;;;;;;;0.00;0.00;;;;;;;17.09;nan;100199.34;4963503;28;20030;-76
2023/07/21 07:16:33;;;;;;;0.00;0.00;;;;;;;17.41;nan;100216.75;4940245;29;20489;-77
2023/07/21 07:19:01;;;;;;;0.00;0.00;;;;;;;17.65;nan;100210.84;4970546;28;20097;-77
2023/07/21 07:21:26;;;;;;;0.00;0.00;;;;;;;17.96;nan;100221.91;4948968;29;20031;-78
2023/07/21 07:23:52;;;;;;;0.00;0.00;;;;;;;17.98;nan;100224.34;4947955;28;21115;-78
2023/07/21 07:26:17;;;;;;;0.00;0.00;;;;;;;;;;4936446;28;20023;-75
2023/07/21 07:28:43;;;;;;;0.00;0.00;;;;;;;17.76;nan;100233.50;4949880;28;20023;-77
2023/07/21 07:31:18;;;;;;;0.00;0.00;;;;;;;17.77;nan;100207.47;4967337;28;20468;-78
2023/07/21 07:33:44;;;;;;;0.00;0.00;;;;;;;17.85;nan;100223.28;4929365;29;20788;-74
2023/07/21 07:36:11;;;;;;;0.00;0.00;;;;;;;18.11;nan;100228.13;4935678;28;20125;-75
2023/07/21 07:38:38;;;;;;;0.00;0.00;;;;;;;18.26;nan;100229.63;4962373;28;20019;-73
2023/07/21 07:41:05;;;;;;;0.00;0.00;;;;;;;18.46;nan;100217.13;4938130;28;20027;-75
2023/07/21 07:43:32;;;;;;;0.00;0.00;;;;;;;;;;4929585;28;20027;-73
2023/07/21 07:45:58;;;;;;;0.00;0.00;;;;;;;19.15;nan;100232.09;4948120;28;20113;-74
2023/07/21 07:48:24;;;;;;;0.00;0.00;;;;;;;19.29;nan;100229.13;4937695;28;20811;-74
2023/07/21 07:50:52;;;;;;;0.00;0.00;;;;;;;19.52;nan;100229.72;4952243;28;20031;-74
2023/07/21 07:53:17;;;;;;;0.00;0.00;;;;;;;;;;4968004;28;20429;-75
2023/07/21 07:55:44;;;;;;;0.00;0.00;;;;;;;19.93;nan;100233.84;4954928;28;20084;-74
2023/07/21 07:58:10;;;;;;;0.00;0.00;;;;;;;19.15;nan;100032.56;4966551;28;20373;-73
2023/07/21 08:00:38;;;;;;;0.00;0.00;;;;;;;20.56;nan;100222.81;4942123;28;20469;-74
2023/07/21 08:03:09;;;;;;;0.00;0.00;;;;;;;20.89;nan;100212.94;4937925;28;20038;-75
2023/07/21 08:05:35;;;;;;;0.00;0.00;;;;;;;20.90;nan;100217.34;4935457;29;20036;-74
2023/07/21 08:08:02;;;;;;;0.00;0.00;;;;;;;21.17;nan;100226.25;4940109;28;20037;-74
2023/07/21 08:10:28;;;;;;;0.00;0.00;;;;;;;21.07;nan;100225.53;4942690;28;20026;-75
2023/07/21 08:12:57;;;;;;;0.00;0.00;;;;;;;;;;4945264;29;20083;-74
2023/07/21 08:15:22;;;;;;;0.00;0.00;;;;;;;;;;4945383;28;20054;-75
2023/07/21 08:17:49;;;;;;;0.00;0.00;;;;;;;21.19;nan;100232.28;4955410;28;20026;-74
2023/07/21 08:20:16;;;;;;;0.00;0.00;;;;;;;21.12;nan;100240.38;4971237;28;20029;-75
2023/07/21 08:22:44;;;;;;;0.00;0.00;;;;;;;20.86;nan;100219.19;4959291;28;20473;-76
2023/07/21 08:25:11;;;;;;;0.00;0.00;;;;;;;21.02;nan;100203.50;4965898;28;20031;-73
2023/07/21 08:27:37;;;;;;;0.00;0.00;;;;;;;21.38;nan;100229.78;4968834;28;20030;-76
2023/07/21 08:30:08;;;;;;;0.00;0.00;;;;;;;21.59;nan;100231.69;4953174;28;20118;-75
2023/07/21 08:32:33;;;;;;;0.00;0.00;;;;;;;21.74;nan;100231.03;4925563;29;20086;-76
2023/07/21 08:34:59;;;;;;;0.00;0.00;;;;;;;21.57;nan;100236.81;4958416;28;20027;-75
2023/07/21 08:37:24;;;;;;;0.00;0.00;;;;;;;;;;4947954;28;20066;-74
2023/07/21 08:39:49;;;;;;;0.00;0.00;;;;;;;21.78;nan;100237.50;4953662;28;20031;-75
2023/07/21 08:42:15;;;;;;;0.00;0.00;;;;;;;22.08;nan;100237.31;4947509;28;20470;-75
2023/07/21 08:44:41;;;;;;;0.00;0.00;;;;;;;22.29;nan;100239.94;4920307;28;20122;-75
2023/07/21 08:47:07;;;;;;;0.00;0.00;;;;;;;22.36;nan;100233.03;4948863;28;20461;-74
2023/07/21 08:49:33;;;;;;;0.00;0.00;;;;;;;;;;4931050;28;20108;-74
2023/07/21 08:51:59;;;;;;;0.00;0.00;;;;;;;22.79;nan;100223.97;4933509;28;20038;-75
2023/07/21 08:54:24;;;;;;;0.00;0.00;;;;;;;23.03;nan;100238.97;4942520;28;20046;-76
2023/07/21 08:56:50;;;;;;;0.00;0.00;;;;;;;;;;4937792;28;20054;-75
2023/07/21 08:59:18;;;;;;;0.00;0.00;;;;;;;23.23;nan;100248.34;4936261;28;20477;-75
2023/07/21 09:01:43;;;;;;;0.00;0.00;;;;;;;23.18;nan;100246.59;4952653;28;20106;-75
2023/07/21 09:04:17;;;;;;;0.00;0.00;;;;;;;22.99;nan;100215.75;4922533;28;20051;-75
2023/07/21 09:06:51;;;;;;;0.00;0.00;;;;;;;22.90;nan;100234.63;4943329;29;20031;-74
2023/07/21 09:09:18;;;;;;;0.00;0.00;;;;;;;22.44;nan;100238.47;4930718;28;20433;-75
2023/07/21 09:11:43;;;;;;;0.00;0.00;;;;;;;22.00;nan;100231.84;4943481;28;20485;-75
2023/07/21 09:14:09;;;;;;;0.00;0.00;;;;;;;21.52;nan;100184.16;4923148;28;20073;-75
2023/07/21 09:16:34;;;;;;;0.00;0.00;;;;;;;21.51;nan;100232.59;4963311;28;20038;-75
2023/07/21 09:19:00;;;;;;;0.00;0.00;;;;;;;21.89;nan;100245.41;4936230;28;20370;-76
2023/07/21 09:21:25;;;;;;;0.00;0.00;;;;;;;22.37;nan;100246.59;4939866;28;20674;-76
2023/07/21 09:24:10;;;;;;;0.00;0.00;;;;;;;;;;4936273;28;22080;-77
2023/07/21 09:26:35;;;;;;;;;;;;;;;23.28;nan;100238.88;4947207;28;20086;-74
2023/07/21 09:29:01;;;;;;;0.00;0.00;;;;;;;23.73;nan;100215.34;4972970;28;19922;-79
2023/07/21 09:31:33;;;;;;;0.00;0.00;;;;;;;23.96;nan;100234.25;4942044;28;20274;-73
2023/07/21 09:34:06;;;;;;;0.00;0.00;;;;;;;23.65;nan;100216.31;4939556;28;20027;-73
2023/07/21 09:36:35;;;;;;;0.00;0.00;;;;;;;23.86;nan;100242.00;4936298;28;20127;-74
2023/07/21 09:39:04;;;;;;;0.00;0.00;;;;;;;24.22;nan;100240.09;4965016;28;20043;-75
2023/07/21 09:41:31;;;;;;;0.00;0.00;;;;;;;;;;4970525;28;20030;-75
2023/07/21 09:43:59;;;;;;;0.00;0.00;;;;;;;;;;4964580;28;20042;-74
2023/07/21 09:46:25;;;;;;;0.00;0.00;;;;;;;24.48;nan;100188.34;4948131;28;20488;-75
2023/07/21 09:48:51;;;;;;;0.00;0.00;;;;;;;24.53;nan;100238.38;4942650;28;20039;-75
2023/07/21 09:51:18;;;;;;;0.00;0.00;;;;;;;23.73;nan;100193.00;4962887;28;20496;-76
2023/07/21 09:53:43;;;;;;;0.00;0.00;;;;;;;;;;4961629;28;20369;-74
2023/07/21 09:56:10;;;;;;;0.00;0.00;;;;;;;22.65;nan;100232.72;4949177;28;20046;-74
2023/07/21 09:58:50;;;;;;;0.00;0.00;;;;;;;22.00;nan;100254.13;4944066;28;20062;-75
2023/07/21 10:01:15;;;;;;;0.00;0.00;;;;;;;;;;4941962;28;20023;-75
2023/07/21 10:03:41;;;;;;;0.00;0.00;;;;;;;19.64;nan;100088.41;4937867;28;20076;-73
2023/07/21 10:06:07;;;;;;;0.00;0.00;;;;;;;;;;4972333;28;20019;-74
2023/07/21 10:08:36;;;;;;;0.00;0.00;;;;;;;20.97;nan;100237.06;4961147;28;20034;-74
2023/07/21 10:11:02;;;;;;;0.00;0.00;;;;;;;;;;4954025;28;20477;-73
2023/07/21 10:13:29;;;;;;;0.00;0.00;;;;;;;;;;4951597;28;20058;-75
2023/07/21 10:15:59;;;;;;;0.00;0.00;;;;;;;;;;4943946;29;20023;-74
2023/07/21 10:18:24;;;;;;;0.00;0.00;;;;;;;24.32;nan;100249.06;4940099;28;20027;-74
2023/07/21 10:20:53;;;;;;;0.00;0.00;;;;;;;23.93;nan;100246.16;4938398;29;20035;-73
2023/07/21 10:23:30;;;;;;;0.00;0.00;;;;;;;23.42;nan;100255.19;4948151;28;20379;-73
2023/07/21 10:26:00;;;;;;;0.00;0.00;;;;;;;23.06;nan;100232.69;4951496;28;20050;-75
2023/07/21 10:28:43;;;;;;;0.00;0.00;;;;;;;22.67;nan;100240.72;4954211;28;20034;-75
2023/07/21 10:31:21;;;;;;;0.00;0.00;;;;;;;22.75;nan;100253.72;4954940;28;20189;-74
2023/07/21 10:34:14;;;;;;;0.00;0.00;;;;;;;25.65;nan;100242.59;4943493;29;20035;-72
2023/07/21 10:36:52;;;;;;;0.00;0.00;;;;;;;28.08;nan;100242.50;4963351;28;20404;-75
2023/07/21 10:39:31;;;;;;;0.00;0.00;;;;;;;27.75;nan;100247.03;4962209;28;20034;-75
2023/07/21 10:42:02;;;;;;;0.00;0.00;;;;;;;28.51;nan;100232.31;4949520;28;20085;-73
2023/07/21 10:44:39;;;;;;;0.00;0.00;;;;;;;30.50;nan;100238.31;4952469;28;20027;-74
2023/07/21 10:47:11;;;;;;;0.00;0.00;;;;;;;31.05;nan;100234.91;4946594;28;20029;-74
2023/07/21 10:49:36;;;;;;;0.00;0.00;;;;;;;31.94;nan;100240.38;4943117;28;20410;-75
2023/07/21 10:52:02;;;;;;;0.00;0.00;;;;;;;33.42;nan;100230.16;4962135;28;20117;-74
2023/07/21 10:54:28;;;;;;;0.00;0.00;;;;;;;;;;4953892;28;20133;-73
2023/07/21 10:56:53;;;;;;;0.00;0.00;;;;;;;29.21;nan;100161.03;4936806;29;20174;-75
2023/07/21 10:59:20;;;;;;;0.00;0.00;;;;;;;27.00;nan;100229.00;4934297;29;20098;-74
2023/07/21 11:01:46;;;;;;;0.00;0.00;;;;;;;25.83;nan;100226.94;4952965;29;20047;-74
2023/07/21 11:04:14;;;;;;;0.00;0.00;;;;;;;25.70;nan;100229.13;4933233;29;20044;-74
2023/07/21 11:07:05;;;;;;;0.00;0.00;;;;;;;30.38;nan;100234.69;4953494;29;20043;-73
2023/07/21 11:09:34;;;;;;;0.00;0.00;;;;;;;33.52;nan;100230.00;4945516;29;20044;-75
2023/07/21 11:12:00;;;;;;;0.00;0.00;;;;;;;34.67;nan;100243.38;4934577;29;20142;-74
2023/07/21 11:14:27;;;;;;;0.00;0.00;;;;;;;32.14;nan;100224.44;4932603;29;20107;-74
2023/07/21 11:16:55;;;;;;;0.00;0.00;;;;;;;29.99;nan;100213.00;4944194;29;20483;-73
2023/07/21 11:19:26;;;;;;;0.00;0.00;;;;;;;28.86;nan;100230.91;4938484;29;20031;-75
2023/07/21 11:21:52;;;;;;;0.00;0.00;;;;;;;27.40;nan;100228.66;4941688;29;20027;-74
2023/07/21 11:24:25;;;;;;;0.00;0.00;;;;;;;26.59;nan;100217.66;4939424;29;20090;-76
2023/07/21 11:27:15;;;;;;;0.00;0.00;;;;;;;29.25;nan;100235.88;4941974;29;20053;-75
2023/07/21 11:29:45;;;;;;;0.00;0.00;;;;;;;33.73;nan;100247.88;4938572;29;20020;-74
2023/07/21 11:32:22;;;;;;;0.00;0.00;;;;;;;36.10;nan;100232.81;4945855;29;20031;-74
2023/07/21 11:34:57;;;;;;;0.00;0.00;;;;;;;37.51;nan;100232.38;4947989;29;20035;-75
2023/07/21 11:37:23;;;;;;;0.00;0.00;;;;;;;39.44;nan;100197.19;4944945;29;20458;-75
2023/07/21 11:39:57;;;;;;;0.00;0.00;;;;;;;39.32;nan;100241.81;4946964;29;20122;-75
2023/07/21 11:42:23;;;;;;;0.00;0.00;;;;;;;39.77;nan;100231.78;4928448;29;20020;-75
2023/07/21 11:44:49;;;;;;;0.00;0.00;;;;;;;38.64;nan;100210.13;4926339;29;20032;-75
2023/07/21 11:47:16;;;;;;;0.00;0.00;;;;;;;;;;4950921;29;20034;-75
2023/07/21 11:49:47;;;;;;;0.00;0.00;;;;;;;31.28;nan;100219.44;4940793;29;20043;-75
2023/07/21 11:52:24;;;;;;;0.00;0.00;;;;;;;;;;4933813;28;20148;-76
2023/07/21 11:54:49;;;;;;;0.00;0.00;;;;;;;28.33;nan;100225.81;4950572;29;20038;-75
2023/07/21 11:57:18;;;;;;;0.00;0.00;;;;;;;27.75;nan;100157.16;4939464;29;20406;-75
2023/07/21 11:59:43;;;;;;;0.00;0.00;;;;;;;;;;4905764;29;20034;-74
2023/07/21 12:02:09;;;;;;;0.00;0.00;;;;;;;28.50;nan;100224.28;4937441;28;20455;-74
2023/07/21 12:04:35;;;;;;;0.00;0.00;;;;;;;;;;4916789;29;20036;-74
2023/07/21 12:07:01;;;;;;;0.00;0.00;;;;;;;33.67;nan;100198.56;4937278;28;20055;-75
2023/07/21 12:09:27;;;;;;;0.00;0.00;;;;;;;32.96;nan;100184.25;4904993;29;20717;-75
2023/07/21 12:11:54;;;;;;;0.00;0.00;;;;;;;;;;4938337;29;20040;-75
2023/07/21 12:14:19;;;;;;;0.00;0.00;;;;;;;29.91;nan;100214.25;4935010;29;20027;-75
2023/07/21 12:16:45;;;;;;;0.00;0.00;;;;;;;;;;4906315;29;20028;-75
2023/07/21 12:19:12;;;;;;;0.00;0.00;;;;;;;28.47;nan;100208.19;4915194;29;20047;-75